Time;durP1;ratioP1;P1;durP2;ratioP2;P2;SDS_P1;SDS_P2;PMS_P1;PMS_P2;Temp;Humidity;BMP_temperature;BMP_pressure;BME280_temperature;BME280_humidity;BME280_pressure;Samples;Min_cycle;Max_cycle;Signal;HPM_P1;HPM_P2
2023/01/03 00:01:30;;;;;;;4.15;1.85;;;11.60;71.00;;;;;;5110563;28;20598;-62
2023/01/03 00:03:59;;;;;;;2.88;1.35;;;11.60;70.90;;;;;;5114412;27;20224;-62
2023/01/03 00:06:28;;;;;;;2.80;1.85;;;11.60;70.80;;;;;;5114311;28;20250;-63
2023/01/03 00:08:57;;;;;;;2.97;1.35;;;11.60;71.10;;;;;;5113757;27;20181;-63
2023/01/03 00:14:09;;;;;;;2.97;1.80;;;11.70;70.80;;;;;;5113399;28;20189;-62
2023/01/03 00:16:36;;;;;;;2.20;1.30;;;11.70;70.80;;;;;;5114603;28;20631;-62
2023/01/03 00:19:07;;;;;;;2.53;1.30;;;11.70;70.70;;;;;;5114201;28;20196;-62
2023/01/03 00:21:34;;;;;;;2.50;1.10;;;11.70;70.90;;;;;;5108034;28;20275;-64
2023/01/03 00:24:02;;;;;;;2.45;1.27;;;11.70;71.10;;;;;;5109517;27;20670;-63
2023/01/03 00:26:29;;;;;;;3.33;1.35;;;11.70;71.00;;;;;;5100684;28;20259;-63
2023/01/03 00:28:57;;;;;;;2.75;1.35;;;11.70;71.00;;;;;;5112004;28;20192;-68
2023/01/03 00:31:26;;;;;;;2.90;1.70;;;11.70;71.10;;;;;;5112007;28;20188;-62
2023/01/03 00:33:53;;;;;;;5.82;1.45;;;11.70;71.10;;;;;;5111628;27;20899;-62
2023/01/03 00:36:21;;;;;;;2.78;1.33;;;11.70;72.00;;;;;;5110496;28;20315;-62
2023/01/03 00:38:48;;;;;;;2.40;1.20;;;11.70;71.10;;;;;;5111328;28;20249;-63
2023/01/03 00:41:17;;;;;;;3.20;1.30;;;11.80;71.50;;;;;;5111843;28;20192;-63
2023/01/03 00:43:47;;;;;;;3.20;1.23;;;11.70;71.20;;;;;;5112760;28;20249;-62
2023/01/03 00:46:16;;;;;;;4.70;0.93;;;11.70;71.40;;;;;;5111831;28;20769;-62
2023/01/03 00:48:45;;;;;;;1.95;0.90;;;11.80;71.50;;;;;;5112964;28;20213;-62
2023/01/03 00:51:13;;;;;;;2.05;1.23;;;11.80;71.60;;;;;;5113278;28;20635;-63
2023/01/03 00:53:41;;;;;;;2.20;1.20;;;11.80;71.60;;;;;;5113569;28;20180;-62
2023/01/03 00:56:10;;;;;;;2.95;1.10;;;11.80;71.60;;;;;;5112720;28;20631;-62
2023/01/03 00:58:38;;;;;;;2.55;0.98;;;11.80;72.10;;;;;;5113116;27;20271;-62
2023/01/03 01:01:06;;;;;;;3.20;1.08;;;11.80;72.80;;;;;;5113352;28;20208;-62
2023/01/03 01:03:34;;;;;;;2.33;0.93;;;11.80;73.30;;;;;;5113096;28;20192;-62
2023/01/03 01:06:11;;;;;;;3.65;0.90;;;11.80;73.40;;;;;;5112808;28;20478;-62
2023/01/03 01:08:38;;;;;;;2.25;1.10;;;11.80;73.90;;;;;;5112917;27;20256;-62
2023/01/03 01:11:05;;;;;;;6.05;1.55;;;11.70;73.90;;;;;;5112555;28;20185;-63
2023/01/03 01:13:34;;;;;;;3.92;1.15;;;11.80;74.20;;;;;;5092977;28;20558;-64
2023/01/03 01:16:03;;;;;;;2.42;1.02;;;11.70;74.60;;;;;;5103583;28;20216;-62
2023/01/03 01:18:30;;;;;;;2.60;1.10;;;11.70;74.70;;;;;;5114796;28;20280;-62
2023/01/03 01:20:58;;;;;;;2.05;1.20;;;11.70;75.10;;;;;;5113885;28;20666;-62
2023/01/03 01:23:26;;;;;;;2.83;1.02;;;11.70;75.50;;;;;;5114963;28;20223;-62
2023/01/03 01:25:53;;;;;;;2.83;1.08;;;11.70;75.60;;;;;;5113879;28;20267;-63
2023/01/03 01:28:20;;;;;;;3.42;1.30;;;11.70;75.60;;;;;;5114380;28;20196;-62
2023/01/03 01:30:47;;;;;;;2.00;0.90;;;11.70;75.90;;;;;;5113912;28;20189;-63
2023/01/03 01:33:15;;;;;;;2.88;1.42;;;11.70;76.10;;;;;;5114446;28;20302;-62
2023/01/03 01:35:42;;;;;;;1.80;0.98;;;11.70;76.30;;;;;;5113297;28;20272;-63
2023/01/03 01:38:09;;;;;;;3.05;1.30;;;11.70;77.70;;;;;;5113971;28;20279;-64
2023/01/03 01:40:37;;;;;;;2.47;1.00;;;11.60;77.10;;;;;;5113466;28;20221;-62
2023/01/03 01:46:04;;;;;;;4.10;1.23;;;11.60;77.30;;;;;;5113655;28;20437;-62
2023/01/03 01:48:32;;;;;;;2.05;1.00;;;11.60;77.50;;;;;;5114204;28;20292;-62
2023/01/03 01:50:59;;;;;;;3.25;1.50;;;11.60;77.80;;;;;;5113183;28;20276;-62
2023/01/03 01:53:30;;;;;;;2.60;1.10;;;11.60;77.70;;;;;;5113803;28;20199;-62
2023/01/03 01:56:05;;;;;;;3.03;1.02;;;11.60;78.10;;;;;;5113653;28;20653;-62
2023/01/03 01:58:35;;;;;;;2.65;1.30;;;11.60;78.30;;;;;;5113980;28;20209;-62
2023/01/03 02:01:04;;;;;;;2.70;1.33;;;11.50;78.60;;;;;;5113456;28;20185;-62
2023/01/03 02:03:32;;;;;;;4.70;1.35;;;11.50;79.20;;;;;;5113894;28;20932;-62
2023/01/03 02:06:02;;;;;;;5.40;1.00;;;11.50;79.50;;;;;;5113272;28;20176;-62
2023/01/03 02:08:29;;;;;;;3.22;1.30;;;11.40;79.70;;;;;;5113813;28;20294;-62
2023/01/03 02:11:18;;;;;;;2.20;1.10;;;11.40;80.90;;;;;;5113000;28;20185;-62
2023/01/03 02:13:52;;;;;;;2.63;1.10;;;11.40;81.00;;;;;;5113757;28;20192;-62
2023/01/03 02:16:47;;;;;;;3.40;1.45;;;11.30;81.20;;;;;;5112969;28;20187;-62
2023/01/03 02:19:52;;;;;;;2.58;1.15;;;11.30;81.60;;;;;;5113334;28;20192;-62
2023/01/03 02:22:58;;;;;;;2.97;1.50;;;11.30;82.90;;;;;;5112685;28;20188;-62
2023/01/03 02:25:59;;;;;;;4.82;1.98;;;11.20;84.00;;;;;;5112768;28;20574;-62
2023/01/03 02:28:59;;;;;;;2.80;2.00;;;11.10;85.60;;;;;;5093026;28;20185;-63
2023/01/03 02:31:35;;;;;;;6.50;2.03;;;11.00;86.70;;;;;;5102985;28;20215;-62
2023/01/03 02:34:09;;;;;;;4.18;2.00;;;11.00;87.00;;;;;;5113402;28;20184;-62
2023/01/03 02:36:47;;;;;;;2.78;1.73;;;11.00;87.10;;;;;;5112414;28;20545;-62
2023/01/03 02:39:25;;;;;;;2.80;1.58;;;11.00;87.60;;;;;;5113068;28;20188;-62
2023/01/03 02:44:49;;;;;;;2.95;1.58;;;11.00;88.20;;;;;;5112696;28;20239;-62
2023/01/03 02:47:21;;;;;;;4.72;2.15;;;10.90;88.00;;;;;;5112772;28;20227;-62
2023/01/03 02:49:51;;;;;;;4.25;1.63;;;10.90;88.10;;;;;;5112494;28;20689;-62
2023/01/03 02:52:23;;;;;;;2.30;1.30;;;10.90;88.40;;;;;;5112601;28;20195;-62
2023/01/03 02:54:56;;;;;;;5.68;2.00;;;10.90;88.90;;;;;;5112833;28;20196;-63
2023/01/03 02:57:27;;;;;;;3.10;1.85;;;10.90;89.30;;;;;;5112393;28;20212;-62
2023/01/03 02:59:58;;;;;;;4.57;2.08;;;10.90;90.00;;;;;;5113052;28;20700;-62
2023/01/03 03:02:31;;;;;;;2.90;1.70;;;10.90;89.20;;;;;;5112290;28;20249;-63
2023/01/03 03:05:00;;;;;;;4.00;1.77;;;10.80;89.10;;;;;;5112803;28;20188;-63
2023/01/03 03:07:32;;;;;;;2.80;1.63;;;10.80;89.20;;;;;;5112064;28;20535;-62
2023/01/03 03:15:35;;;;;;;2.40;1.45;;;10.80;89.90;;;;;;5112361;28;20515;-62
2023/01/03 03:18:09;;;;;;;3.17;1.77;;;10.80;90.00;;;;;;5112405;28;20195;-62
2023/01/03 03:26:15;;;;;;;3.08;1.90;;;10.70;90.30;;;;;;5112748;28;20203;-62
2023/01/03 03:28:46;;;;;;;3.65;2.10;;;10.70;90.50;;;;;;5112283;28;20193;-62
2023/01/03 03:31:17;;;;;;;4.15;1.90;;;10.70;90.60;;;;;;5112707;28;20188;-62
2023/01/03 03:33:49;;;;;;;3.15;1.98;;;10.70;90.70;;;;;;5111915;28;20240;-62
2023/01/03 03:36:22;;;;;;;3.40;1.95;;;10.70;90.70;;;;;;5112178;28;20255;-62
2023/01/03 03:38:50;;;;;;;4.18;1.80;;;10.70;90.80;;;;;;5116205;28;20196;-62
2023/01/03 03:47:10;;;;;;;3.95;2.05;;;10.70;91.10;;;;;;5116556;28;20279;-62
2023/01/03 03:49:41;;;;;;;2.92;2.15;;;10.70;91.20;;;;;;5116079;28;20216;-63
2023/01/03 03:52:14;;;;;;;4.60;2.47;;;10.70;91.20;;;;;;5115433;28;20188;-62
2023/01/03 03:54:45;;;;;;;3.15;2.25;;;10.60;91.50;;;;;;5115921;28;20709;-65
2023/01/03 03:57:17;;;;;;;3.33;2.05;;;10.60;91.60;;;;;;5115638;28;20196;-62
2023/01/03 03:59:54;;;;;;;2.83;1.80;;;10.50;91.50;;;;;;5115996;28;20195;-62
2023/01/03 04:02:22;;;;;;;3.83;2.58;;;10.50;91.50;;;;;;5115913;28;20191;-62
2023/01/03 04:04:55;;;;;;;3.53;2.22;;;10.50;91.50;;;;;;5116310;28;20609;-62
2023/01/03 04:07:22;;;;;;;3.20;2.00;;;10.50;91.60;;;;;;5115558;28;20219;-64
2023/01/03 04:09:50;;;;;;;3.75;1.90;;;10.50;91.80;;;;;;5116221;28;20188;-62
2023/01/03 04:12:17;;;;;;;3.95;2.15;;;10.50;91.70;;;;;;5115869;28;20189;-62
2023/01/03 04:14:44;;;;;;;3.28;1.95;;;10.50;91.60;;;;;;5115968;28;20196;-62
2023/01/03 04:17:11;;;;;;;4.85;1.92;;;10.40;91.70;;;;;;5115672;28;20189;-63
2023/01/03 04:19:39;;;;;;;5.07;2.85;;;10.40;91.60;;;;;;5115827;28;20184;-64
2023/01/03 04:22:07;;;;;;;3.45;2.25;;;10.50;91.70;;;;;;5116187;27;20201;-64
2023/01/03 04:24:34;;;;;;;3.10;2.10;;;10.40;92.00;;;;;;5115139;28;20183;-63
2023/01/03 04:27:02;;;;;;;4.18;1.90;;;10.40;91.70;;;;;;5115910;28;20271;-63
2023/01/03 04:29:29;;;;;;;3.90;2.10;;;10.40;91.80;;;;;;5115693;28;20195;-66
2023/01/03 04:31:56;;;;;;;4.70;2.33;;;10.30;92.10;;;;;;5115841;28;20203;-62
2023/01/03 04:34:23;;;;;;;3.67;1.90;;;10.30;92.30;;;;;;5115573;28;20191;-62
2023/01/03 04:36:51;;;;;;;2.80;2.00;;;10.30;92.50;;;;;;5115033;28;20601;-62
2023/01/03 04:39:19;;;;;;;4.47;1.80;;;10.20;92.40;;;;;;5115712;28;20673;-62
2023/01/03 04:41:46;;;;;;;3.10;1.85;;;10.20;92.40;;;;;;5115215;28;20592;-62
2023/01/03 04:44:13;;;;;;;3.95;2.20;;;10.20;92.60;;;;;;5115850;28;20667;-63
2023/01/03 04:46:41;;;;;;;3.88;1.92;;;10.20;92.60;;;;;;5115170;27;20184;-63
2023/01/03 04:49:10;;;;;;;3.50;2.00;;;10.20;92.50;;;;;;5115232;28;20187;-64
2023/01/03 04:51:38;;;;;;;6.05;2.00;;;10.20;92.50;;;;;;5115014;28;20311;-65
2023/01/03 04:54:06;;;;;;;2.90;1.50;;;10.20;92.40;;;;;;5115368;28;20245;-63
2023/01/03 04:56:37;;;;;;;3.90;2.00;;;10.20;92.30;;;;;;5115519;28;20198;-62
2023/01/03 04:59:05;;;;;;;2.83;1.50;;;10.20;92.30;;;;;;5114892;28;20187;-63
2023/01/03 05:01:32;;;;;;;3.72;1.90;;;10.20;92.30;;;;;;5115347;28;20257;-63
2023/01/03 05:04:01;;;;;;;3.30;1.55;;;10.10;92.20;;;;;;5115337;28;20538;-65
2023/01/03 05:06:29;;;;;;;3.45;1.88;;;10.10;92.30;;;;;;5115170;28;20192;-63
2023/01/03 05:08:56;;;;;;;2.70;1.63;;;10.20;92.20;;;;;;5114567;28;20252;-64
2023/01/03 05:11:24;;;;;;;3.25;1.90;;;10.10;92.40;;;;;;5114828;28;20183;-63
2023/01/03 05:13:52;;;;;;;3.90;1.73;;;10.10;92.50;;;;;;5115335;28;20188;-62
2023/01/03 05:16:20;;;;;;;4.35;1.80;;;10.10;92.60;;;;;;5114175;28;20250;-63
2023/01/03 05:18:52;;;;;;;3.08;1.85;;;10.10;92.60;;;;;;5114690;28;20191;-63
2023/01/03 05:26:53;;;;;;;2.78;1.40;;;10.10;92.30;;;;;;5114658;28;20323;-62
2023/01/03 05:29:22;;;;;;;8.80;1.40;;;10.10;92.40;;;;;;5114752;28;20240;-62
2023/01/03 05:31:50;;;;;;;2.85;1.63;;;10.00;92.50;;;;;;5114146;28;20194;-62
2023/01/03 05:34:17;;;;;;;3.28;1.50;;;10.00;92.40;;;;;;5114940;28;20192;-62
2023/01/03 05:36:44;;;;;;;3.17;2.20;;;10.00;92.30;;;;;;5113870;28;20291;-63
2023/01/03 05:39:11;;;;;;;3.53;1.73;;;10.00;92.40;;;;;;5114408;28;20216;-63
2023/01/03 05:44:25;;;;;;;3.45;1.63;;;10.00;92.30;;;;;;5114377;28;20193;-64
2023/01/03 05:46:52;;;;;;;3.95;1.80;;;10.00;92.40;;;;;;5114631;28;20286;-63
2023/01/03 05:49:19;;;;;;;4.90;1.90;;;10.00;92.40;;;;;;5114017;28;20255;-62
2023/01/03 05:51:46;;;;;;;2.63;1.60;;;9.90;93.00;;;;;;5114500;28;20252;-63
2023/01/03 05:54:15;;;;;;;5.97;1.88;;;9.90;93.00;;;;;;5114035;28;20188;-63
2023/01/03 05:56:42;;;;;;;2.65;1.60;;;10.00;92.50;;;;;;5114383;28;20198;-63
2023/01/03 05:59:09;;;;;;;2.85;1.77;;;9.90;93.10;;;;;;5112869;28;20192;-65
2023/01/03 06:01:38;;;;;;;2.13;1.20;;;9.90;93.10;;;;;;5114254;28;20195;-63
2023/01/03 06:04:06;;;;;;;2.53;1.40;;;10.00;92.60;;;;;;5113569;28;20190;-63
2023/01/03 06:06:33;;;;;;;2.72;1.75;;;10.00;92.70;;;;;;5113999;28;20195;-62
2023/01/03 06:09:01;;;;;;;3.97;1.92;;;9.90;93.20;;;;;;5113780;28;20273;-63
2023/01/03 06:11:29;;;;;;;2.60;1.63;;;9.90;93.10;;;;;;5113975;28;20675;-63
2023/01/03 06:13:56;;;;;;;2.30;1.58;;;9.90;93.20;;;;;;5113391;27;20231;-62
2023/01/03 06:19:10;;;;;;;2.30;1.40;;;9.90;93.20;;;;;;5113788;28;20613;-63
2023/01/03 06:21:37;;;;;;;2.28;1.30;;;9.90;93.30;;;;;;5113747;28;20210;-64
2023/01/03 06:24:05;;;;;;;3.28;1.77;;;9.90;93.30;;;;;;5113132;28;20714;-65
2023/01/03 06:26:33;;;;;;;2.42;1.42;;;9.80;93.20;;;;;;5113631;28;20183;-62
2023/01/03 06:29:01;;;;;;;2.63;1.42;;;9.80;93.20;;;;;;5113809;28;20215;-63
2023/01/03 06:31:28;;;;;;;1.92;1.15;;;9.90;93.30;;;;;;5112893;28;20179;-63
2023/01/03 06:33:55;;;;;;;2.85;1.70;;;9.80;93.20;;;;;;5113792;28;20196;-63
2023/01/03 06:36:25;;;;;;;2.85;1.40;;;9.80;93.00;;;;;;5112776;28;20208;-63
2023/01/03 06:38:53;;;;;;;2.33;1.10;;;9.80;92.90;;;;;;5113638;28;20291;-62
2023/01/03 06:41:21;;;;;;;2.40;1.33;;;9.70;92.80;;;;;;5112915;28;20191;-62
2023/01/03 06:43:48;;;;;;;2.78;1.20;;;9.70;92.70;;;;;;5113384;28;20192;-63
2023/01/03 06:54:34;;;;;;;3.28;1.83;;;9.70;92.80;;;;;;5113528;28;20186;-63
2023/01/03 06:57:01;;;;;;;2.38;1.75;;;9.60;93.00;;;;;;5112584;28;20187;-63
2023/01/03 06:59:29;;;;;;;3.35;1.88;;;9.60;93.20;;;;;;5113340;28;20248;-63
2023/01/03 07:01:57;;;;;;;3.17;1.60;;;9.60;93.30;;;;;;5113107;28;20213;-63
2023/01/03 07:04:25;;;;;;;3.53;1.85;;;9.60;93.50;;;;;;5112959;28;20202;-63
2023/01/03 07:06:54;;;;;;;2.50;1.08;;;9.60;93.40;;;;;;5112502;28;20192;-63
2023/01/03 07:09:23;;;;;;;2.15;1.08;;;9.50;93.00;;;;;;5112925;28;20574;-63
2023/01/03 07:11:50;;;;;;;4.38;0.98;;;9.50;93.00;;;;;;5112766;28;20188;-63
2023/01/03 07:14:17;;;;;;;4.28;1.20;;;9.50;92.80;;;;;;5112867;28;20240;-66
2023/01/03 07:16:48;;;;;;;2.35;1.25;;;9.50;92.90;;;;;;5112907;28;20183;-62
2023/01/03 07:19:17;;;;;;;2.92;1.17;;;9.40;92.90;;;;;;5112298;28;20237;-63
2023/01/03 07:21:44;;;;;;;2.10;1.20;;;9.40;92.90;;;;;;5112691;28;20198;-63
2023/01/03 07:24:18;;;;;;;3.50;1.50;;;9.40;93.00;;;;;;5112093;28;20187;-63
2023/01/03 07:26:45;;;;;;;3.40;1.77;;;9.40;93.10;;;;;;5112861;28;20672;-63
2023/01/03 07:29:13;;;;;;;2.90;1.83;;;9.40;93.10;;;;;;5108613;28;20219;-63
2023/01/03 07:31:40;;;;;;;2.72;1.42;;;9.40;93.00;;;;;;5111004;28;20231;-63
2023/01/03 07:34:08;;;;;;;7.47;1.80;;;9.30;92.90;;;;;;5110860;28;20190;-67
2023/01/03 07:36:36;;;;;;;3.72;1.58;;;9.30;93.10;;;;;;5110705;28;20251;-64
2023/01/03 07:39:04;;;;;;;2.83;1.60;;;9.30;93.20;;;;;;5106686;28;20194;-63
2023/01/03 07:44:13;;;;;;;3.70;1.70;;;9.30;93.20;;;;;;5087397;28;20725;-63
2023/01/03 07:46:40;;;;;;;2.35;1.13;;;9.30;93.20;;;;;;5111059;28;20202;-62
2023/01/03 07:49:07;;;;;;;3.85;1.85;;;9.20;93.40;;;;;;5110620;28;20228;-63
2023/01/03 07:51:35;;;;;;;3.35;1.50;;;9.30;93.50;;;;;;5110911;28;20722;-64
2023/01/03 07:54:02;;;;;;;2.00;0.90;;;9.30;93.20;;;;;;5106060;28;20185;-62
2023/01/03 07:56:29;;;;;;;2.35;0.93;;;9.30;93.20;;;;;;5111283;28;20626;-63
2023/01/03 07:58:57;;;;;;;4.85;1.13;;;9.30;93.10;;;;;;5111074;28;20580;-62
2023/01/03 08:01:25;;;;;;;1.85;0.90;;;9.20;93.10;;;;;;5110267;28;20277;-63
2023/01/03 08:03:52;;;;;;;1.83;1.00;;;9.20;93.10;;;;;;5111138;28;20210;-63
2023/01/03 08:06:22;;;;;;;3.42;1.50;;;9.20;93.40;;;;;;5110224;28;20194;-63
2023/01/03 08:13:16;;;;;;;4.68;1.90;;;9.30;93.50;;;;;;5110903;28;20216;-63
2023/01/03 08:14:23;;;;;;;2.90;1.40;;;9.20;93.50;;;;;;5110278;28;20198;-63
2023/01/03 08:16:50;;;;;;;4.32;1.45;;;9.20;93.60;;;;;;5110667;28;20248;-63
2023/01/03 08:19:17;;;;;;;3.08;1.17;;;9.20;93.80;;;;;;5109928;28;20192;-63
2023/01/03 08:21:44;;;;;;;5.15;1.27;;;9.20;93.80;;;;;;5110369;28;20197;-63
2023/01/03 08:24:11;;;;;;;3.17;1.50;;;9.20;93.70;;;;;;5111437;28;20191;-63
2023/01/03 08:26:38;;;;;;;2.70;1.50;;;9.20;93.90;;;;;;5114092;28;20180;-63
2023/01/03 08:29:06;;;;;;;4.43;1.88;;;9.20;94.10;;;;;;5113803;28;20580;-65
2023/01/03 08:31:39;;;;;;;2.40;1.40;;;9.20;94.30;;;;;;5113920;28;20226;-64
2023/01/03 08:34:08;;;;;;;5.63;1.52;;;9.20;94.20;;;;;;5114121;28;20198;-62
2023/01/03 08:36:41;;;;;;;5.57;1.92;;;9.20;94.20;;;;;;5112005;28;20218;-64
2023/01/03 08:39:12;;;;;;;4.20;1.98;;;9.20;94.20;;;;;;5114229;28;20192;-62
2023/01/03 08:41:44;;;;;;;4.82;1.73;;;9.30;94.10;;;;;;5113720;28;20236;-64
2023/01/03 08:44:11;;;;;;;3.55;1.80;;;9.30;94.10;;;;;;5109708;28;20230;-64
2023/01/03 08:46:43;;;;;;;5.07;1.55;;;9.20;94.20;;;;;;5113570;28;20195;-62
2023/01/03 08:49:11;;;;;;;4.45;1.65;;;9.20;94.30;;;;;;5114483;28;20221;-63
2023/01/03 08:51:39;;;;;;;3.08;1.65;;;9.30;94.30;;;;;;5114012;28;20233;-63
2023/01/03 08:54:06;;;;;;;2.63;1.55;;;9.30;94.30;;;;;;5113550;28;20278;-62
2023/01/03 08:56:33;;;;;;;2.67;1.50;;;9.30;94.50;;;;;;5114021;28;20194;-63
2023/01/03 08:59:00;;;;;;;4.72;1.70;;;9.30;94.40;;;;;;5113663;28;20187;-64
2023/01/03 09:01:27;;;;;;;2.70;1.52;;;9.30;94.30;;;;;;5113495;28;20252;-63
2023/01/03 09:03:56;;;;;;;3.20;2.00;;;9.30;94.30;;;;;;5113722;28;20198;-62
2023/01/03 09:06:23;;;;;;;4.55;3.47;;;9.30;94.40;;;;;;5114133;28;20193;-63
2023/01/03 09:08:50;;;;;;;4.40;2.85;;;9.20;94.40;;;;;;5113342;28;20210;-65
2023/01/03 09:11:17;;;;;;;4.13;2.50;;;9.30;94.50;;;;;;5109726;28;20244;-63
2023/01/03 09:13:44;;;;;;;3.92;3.08;;;9.30;94.60;;;;;;5113430;28;20198;-63
2023/01/03 09:16:15;;;;;;;4.38;2.45;;;9.30;94.70;;;;;;5114007;28;20285;-64
2023/01/03 09:18:42;;;;;;;3.80;3.17;;;9.30;94.70;;;;;;5113122;28;20191;-63
2023/01/03 09:21:10;;;;;;;8.88;2.88;;;9.30;94.60;;;;;;5113664;28;20515;-63
2023/01/03 09:23:42;;;;;;;4.10;2.33;;;9.30;94.50;;;;;;5108150;28;20608;-66
2023/01/03 09:26:09;;;;;;;3.65;2.50;;;9.40;94.40;;;;;;5111024;28;20637;-63
2023/01/03 09:28:36;;;;;;;3.38;2.35;;;9.40;94.50;;;;;;5111826;28;20247;-63
2023/01/03 09:31:04;;;;;;;3.78;3.00;;;9.40;94.50;;;;;;5112160;28;20203;-62
2023/01/03 09:33:31;;;;;;;3.42;2.65;;;9.40;94.60;;;;;;5112351;28;20199;-62
2023/01/03 09:35:59;;;;;;;3.60;2.80;;;9.40;94.40;;;;;;5110776;28;20227;-63
2023/01/03 09:38:27;;;;;;;3.15;2.22;;;9.40;94.50;;;;;;5112921;28;20601;-63
2023/01/03 09:41:00;;;;;;;5.43;2.42;;;9.40;94.40;;;;;;5112267;28;20225;-63
2023/01/03 09:43:35;;;;;;;3.05;2.28;;;9.40;94.50;;;;;;5112355;28;20282;-63
2023/01/03 09:46:04;;;;;;;4.75;2.70;;;9.40;94.60;;;;;;5113268;28;20552;-63
2023/01/03 09:48:35;;;;;;;7.47;4.50;;;9.40;94.70;;;;;;5113127;28;20219;-62
2023/01/03 09:51:03;;;;;;;6.18;5.20;;;9.40;94.70;;;;;;5110168;28;20710;-63
2023/01/03 10:05:21;;;;;;;5.30;4.00;;;9.40;94.80;;;;;;5112115;28;20225;-63
2023/01/03 10:08:04;;;;;;;5.15;3.00;;;9.50;95.00;;;;;;5108385;28;20194;-63
2023/01/03 10:10:41;;;;;;;3.78;2.72;;;9.50;94.90;;;;;;5111511;28;20247;-65
2023/01/03 10:13:17;;;;;;;3.90;3.15;;;9.60;94.80;;;;;;5111826;28;20277;-63
2023/01/03 10:15:55;;;;;;;3.15;2.63;;;9.70;94.40;;;;;;5111644;28;20195;-63
2023/01/03 10:18:42;;;;;;;4.30;3.20;;;9.70;94.50;;;;;;5111735;28;20605;-63
2023/01/03 10:21:18;;;;;;;4.10;3.55;;;9.70;94.30;;;;;;5108061;28;20216;-64
2023/01/03 10:23:48;;;;;;;3.58;2.45;;;9.80;93.90;;;;;;5111832;28;20186;-64
2023/01/03 10:26:16;;;;;;;3.55;2.50;;;9.80;94.20;;;;;;5108008;28;20637;-64
2023/01/03 10:28:45;;;;;;;4.57;3.33;;;9.80;93.70;;;;;;5111273;27;20243;-63
2023/01/03 10:31:29;;;;;;;4.32;2.70;;;9.70;93.80;;;;;;5111646;28;20279;-63
2023/01/03 10:33:56;;;;;;;4.45;3.40;;;9.80;94.10;;;;;;5109457;28;20279;-63
2023/01/03 10:36:23;;;;;;;5.72;3.47;;;9.80;94.00;;;;;;5111776;28;20267;-63
2023/01/03 10:39:03;;;;;;;6.40;4.30;;;9.90;93.70;;;;;;5111065;28;20609;-63
2023/01/03 10:41:36;;;;;;;4.28;3.00;;;10.00;93.10;;;;;;5110053;28;20629;-62
2023/01/03 10:44:04;;;;;;;3.55;1.95;;;10.10;93.40;;;;;;5107469;28;20199;-64
2023/01/03 10:46:32;;;;;;;4.57;2.70;;;10.10;93.30;;;;;;5111933;28;20199;-62
2023/01/03 10:49:14;;;;;;;3.88;2.78;;;10.20;93.20;;;;;;5110720;28;20708;-63
2023/01/03 10:51:50;;;;;;;3.53;2.08;;;10.30;92.60;;;;;;5111917;28;20188;-63
2023/01/03 10:54:26;;;;;;;3.20;2.03;;;10.30;91.90;;;;;;5111378;28;20602;-63
2023/01/03 10:56:55;;;;;;;2.97;2.00;;;10.40;92.00;;;;;;5108820;28;20677;-63
2023/01/03 10:59:24;;;;;;;3.75;1.83;;;10.60;92.60;;;;;;5110354;28;20883;-63
2023/01/03 11:02:02;;;;;;;3.13;2.20;;;10.90;90.90;;;;;;5111084;28;20623;-64
2023/01/03 11:04:29;;;;;;;2.85;2.10;;;10.80;90.70;;;;;;5108748;28;20184;-63
2023/01/03 11:07:12;;;;;;;3.17;2.17;;;10.90;90.60;;;;;;5110490;28;20723;-64
2023/01/03 11:09:43;;;;;;;3.45;1.75;;;11.20;90.80;;;;;;5108505;28;20216;-64
2023/01/03 11:12:15;;;;;;;3.95;1.58;;;11.60;88.80;;;;;;5111778;28;20231;-65
2023/01/03 11:14:50;;;;;;;2.97;1.17;;;11.70;88.90;;;;;;5107346;28;20271;-63
2023/01/03 11:17:22;;;;;;;2.70;1.52;;;11.90;86.70;;;;;;5111843;28;20216;-63
2023/01/03 11:19:51;;;;;;;2.15;1.27;;;12.00;84.50;;;;;;5111454;28;20227;-64
2023/01/03 11:22:32;;;;;;;2.38;1.50;;;12.00;85.20;;;;;;5109518;28;20192;-64
2023/01/03 11:25:11;;;;;;;3.67;2.67;;;11.90;84.60;;;;;;5111483;28;20253;-65
2023/01/03 11:27:59;;;;;;;2.20;1.48;;;11.80;84.00;;;;;;5107970;28;20192;-65
2023/01/03 11:30:34;;;;;;;2.75;1.83;;;11.60;83.60;;;;;;5107375;28;20208;-64
2023/01/03 11:33:16;;;;;;;4.65;2.50;;;11.50;83.40;;;;;;5111130;28;20187;-64
2023/01/03 11:36:01;;;;;;;4.55;2.88;;;11.30;83.50;;;;;;5106809;28;20224;-64
2023/01/03 11:38:46;;;;;;;4.85;2.90;;;11.20;84.00;;;;;;5106421;28;20234;-63
2023/01/03 11:41:33;;;;;;;3.47;2.15;;;11.10;86.00;;;;;;5110436;28;20188;-64
2023/01/03 11:44:23;;;;;;;2.83;1.73;;;11.00;84.90;;;;;;5110470;28;20188;-64
2023/01/03 11:47:03;;;;;;;3.63;1.65;;;11.00;84.70;;;;;;5110052;28;20195;-63
2023/01/03 11:49:37;;;;;;;2.20;1.30;;;10.90;85.60;;;;;;5111072;28;20720;-64
2023/01/03 11:52:18;;;;;;;3.03;1.85;;;10.80;86.00;;;;;;5110018;28;20183;-65
2023/01/03 11:55:06;;;;;;;4.13;2.10;;;10.80;86.90;;;;;;5103414;28;20203;-63
2023/01/03 11:57:43;;;;;;;3.88;1.63;;;10.70;86.40;;;;;;5110547;28;20583;-63
2023/01/03 12:00:22;;;;;;;4.10;1.92;;;10.60;86.70;;;;;;5113175;28;20187;-64
2023/01/03 12:03:11;;;;;;;2.97;1.70;;;10.60;86.80;;;;;;5113999;28;20199;-65
2023/01/03 12:05:43;;;;;;;2.53;1.45;;;10.60;87.00;;;;;;5110408;28;20196;-64
2023/01/03 12:08:54;;;;;;;4.20;1.60;;;10.50;86.90;;;;;;5114531;28;20191;-64
2023/01/03 12:11:42;;;;;;;5.18;3.00;;;10.40;87.30;;;;;;5113993;27;20269;-63
2023/01/03 12:14:18;;;;;;;3.45;2.30;;;10.40;86.30;;;;;;5101462;28;20195;-64
2023/01/03 12:16:54;;;;;;;3.53;1.83;;;10.30;87.30;;;;;;5114020;28;20619;-64
2023/01/03 12:19:32;;;;;;;2.25;1.30;;;10.30;88.60;;;;;;5110394;28;20657;-64
2023/01/03 12:22:05;;;;;;;2.65;1.73;;;10.40;88.30;;;;;;5114074;28;20192;-63
2023/01/03 12:24:41;;;;;;;3.55;1.75;;;10.50;88.50;;;;;;5110693;28;20197;-63
2023/01/03 12:27:14;;;;;;;3.50;1.58;;;10.50;87.90;;;;;;5113450;28;20378;-65
2023/01/03 12:29:54;;;;;;;2.40;1.70;;;10.50;87.80;;;;;;5114064;28;20215;-64
2023/01/03 12:32:30;;;;;;;2.92;1.70;;;10.50;89.30;;;;;;5114479;28;20203;-64
2023/01/03 12:35:15;;;;;;;2.65;1.60;;;10.50;89.40;;;;;;5113114;28;20307;-64
2023/01/03 12:37:45;;;;;;;2.78;1.05;;;10.60;89.30;;;;;;5113496;28;20277;-65
2023/01/03 12:40:21;;;;;;;4.05;1.70;;;10.70;88.60;;;;;;5113697;28;20236;-63
2023/01/03 12:42:59;;;;;;;2.05;1.17;;;10.80;87.60;;;;;;5113849;28;20194;-64
2023/01/03 12:45:41;;;;;;;2.35;1.27;;;10.80;86.70;;;;;;5110658;28;20202;-64
2023/01/03 12:48:23;;;;;;;3.05;2.13;;;10.80;86.40;;;;;;5113538;28;20195;-64
2023/01/03 12:50:53;;;;;;;6.57;5.57;;;10.70;86.60;;;;;;5113640;28;20217;-64
2023/01/03 12:53:26;;;;;;;30.92;17.73;;;10.70;87.50;;;;;;5113627;28;20191;-64
2023/01/03 12:56:13;;;;;;;7.32;4.15;;;10.70;87.70;;;;;;5113229;28;20232;-63
2023/01/03 12:58:55;;;;;;;10.10;5.10;;;10.70;88.00;;;;;;5111775;28;20634;-63
2023/01/03 13:01:34;;;;;;;5.55;3.17;;;10.70;87.90;;;;;;5112307;28;20191;-63
2023/01/03 13:04:10;;;;;;;3.85;1.95;;;10.60;87.20;;;;;;5113903;27;20230;-63
2023/01/03 13:06:41;;;;;;;9.25;4.55;;;10.60;86.90;;;;;;5112914;28;20190;-64
2023/01/03 13:09:18;;;;;;;24.17;12.73;;;10.50;86.60;;;;;;5113130;28;20215;-64
2023/01/03 13:11:50;;;;;;;6.82;3.22;;;10.40;87.50;;;;;;5113216;28;20221;-64
2023/01/03 13:14:19;;;;;;;24.17;12.00;;;10.30;87.30;;;;;;5113202;28;20343;-64
2023/01/03 13:16:48;;;;;;;10.75;6.57;;;10.20;88.00;;;;;;5112943;28;20192;-63
2023/01/03 13:19:50;;;;;;;3.80;2.22;;;10.20;88.40;;;;;;5112486;28;20193;-64
2023/01/03 13:22:43;;;;;;;3.50;2.17;;;10.20;88.60;;;;;;5110068;28;20197;-63
2023/01/03 13:25:36;;;;;;;3.63;2.00;;;10.30;89.10;;;;;;5113172;28;20643;-64
2023/01/03 13:28:08;;;;;;;4.93;2.85;;;10.30;89.30;;;;;;5110073;28;20591;-64
2023/01/03 13:30:37;;;;;;;8.10;4.40;;;10.30;89.80;;;;;;5113099;28;20228;-65
2023/01/03 13:33:15;;;;;;;4.50;2.60;;;10.30;89.80;;;;;;5112428;28;20521;-65
2023/01/03 13:36:00;;;;;;;12.15;4.40;;;10.30;89.10;;;;;;5113345;28;20234;-64
2023/01/03 13:38:30;;;;;;;28.02;14.50;;;10.20;89.10;;;;;;5110446;28;20220;-64
2023/01/03 13:40:59;;;;;;;18.52;9.45;;;10.20;89.70;;;;;;5112914;28;20277;-64
2023/01/03 13:43:31;;;;;;;15.60;8.32;;;10.20;89.40;;;;;;5112912;28;20203;-63
2023/01/03 13:46:17;;;;;;;9.63;5.55;;;10.20;89.70;;;;;;5113044;27;20566;-65
2023/01/03 13:48:55;;;;;;;7.65;3.47;;;10.30;88.90;;;;;;5113265;28;20245;-65
2023/01/03 13:51:47;;;;;;;15.35;6.70;;;10.30;89.70;;;;;;5112301;28;20738;-64
2023/01/03 13:55:05;;;;;;;7.50;4.50;;;10.30;90.00;;;;;;5111771;28;20596;-64
2023/01/03 13:57:53;;;;;;;5.68;3.58;;;10.40;90.20;;;;;;5113151;28;20199;-63
2023/01/03 14:00:22;;;;;;;23.05;10.07;;;10.40;90.10;;;;;;5109155;28;20191;-65
2023/01/03 14:03:35;;;;;;;18.65;8.77;;;10.50;90.00;;;;;;5112427;28;20192;-64
2023/01/03 14:06:53;;;;;;;9.77;5.95;;;10.50;90.20;;;;;;5109198;28;20191;-65
2023/01/03 14:09:42;;;;;;;3.90;2.80;;;10.50;90.20;;;;;;5112257;28;20192;-64
2023/01/03 14:12:48;;;;;;;3.33;2.40;;;10.60;90.30;;;;;;5112480;28;20285;-66
2023/01/03 14:15:18;;;;;;;8.00;4.13;;;10.60;90.10;;;;;;5106666;28;20242;-63
2023/01/03 14:17:48;;;;;;;6.15;4.75;;;10.50;90.00;;;;;;5111556;28;20255;-65
2023/01/03 14:20:21;;;;;;;9.15;4.60;;;10.50;89.20;;;;;;5107052;28;20283;-65